createdAt,value
2018-12-18T00:00:05.572Z,3.72
2018-12-18T00:02:33.044Z,3.69
2018-12-18T00:05:02.338Z,3.76
2018-12-18T00:07:29.742Z,3.79
2018-12-18T00:09:57.191Z,3.81
2018-12-18T00:12:24.583Z,3.84
2018-12-18T00:14:51.977Z,3.91
2018-12-18T00:17:19.388Z,3.93
2018-12-18T00:19:46.782Z,3.96
2018-12-18T00:22:14.175Z,4.01
2018-12-18T00:24:41.572Z,4.03
2018-12-18T00:27:08.997Z,4.13
2018-12-18T00:29:36.392Z,4.19
2018-12-18T00:32:03.803Z,4.24
2018-12-18T00:34:31.544Z,4.24
2018-12-18T00:36:58.947Z,4.30
2018-12-18T00:39:26.349Z,4.24
2018-12-18T00:41:55.635Z,4.23
2018-12-18T00:44:23.048Z,4.28
2018-12-18T00:46:50.444Z,4.33
2018-12-18T00:49:17.851Z,4.36
2018-12-18T00:51:45.250Z,4.33
2018-12-18T00:54:12.721Z,4.48
2018-12-18T00:56:40.114Z,4.57
2018-12-18T00:59:07.517Z,4.54
2018-12-18T01:01:34.914Z,4.63
2018-12-18T01:04:02.338Z,4.68
2018-12-18T01:06:29.734Z,4.66
2018-12-18T01:08:57.147Z,4.68
2018-12-18T01:11:24.538Z,4.73
2018-12-18T01:13:51.935Z,4.76
2018-12-18T01:16:19.325Z,4.86
2018-12-18T01:18:46.721Z,4.87
2018-12-18T01:21:14.204Z,4.94
2018-12-18T01:23:42.378Z,4.90
2018-12-18T01:26:09.856Z,4.84
2018-12-18T01:28:37.244Z,4.90
2018-12-18T01:31:04.642Z,4.89
2018-12-18T01:33:32.037Z,4.98
2018-12-18T01:35:59.428Z,4.98
2018-12-18T01:38:26.839Z,4.97
2018-12-18T01:40:54.236Z,5.02
2018-12-18T01:43:21.629Z,5.03
2018-12-18T01:45:49.030Z,5.07
2018-12-18T01:48:16.418Z,5.10
2018-12-18T01:50:43.794Z,5.13
2018-12-18T01:53:11.206Z,5.15
2018-12-18T01:55:38.604Z,5.21
2018-12-18T01:58:06.014Z,5.11
2018-12-18T02:00:33.411Z,5.13
2018-12-18T02:03:00.804Z,5.15
2018-12-18T02:05:28.198Z,5.18
2018-12-18T02:07:55.639Z,5.17
2018-12-18T02:10:23.129Z,5.19
2018-12-18T02:12:50.536Z,5.20
2018-12-18T02:15:17.928Z,5.32
2018-12-18T02:17:45.302Z,5.24
2018-12-18T02:20:12.704Z,5.32
2018-12-18T02:22:40.096Z,5.33
2018-12-18T02:25:07.487Z,5.38
2018-12-18T02:27:34.878Z,5.39
2018-12-18T02:30:02.272Z,5.42
2018-12-18T02:32:29.750Z,5.44
2018-12-18T02:34:57.156Z,5.42
2018-12-18T02:37:24.542Z,5.50
2018-12-18T02:39:51.937Z,5.52
2018-12-18T02:42:19.337Z,5.49
2018-12-18T02:44:46.729Z,5.57
2018-12-18T02:47:14.209Z,5.59
2018-12-18T02:49:41.612Z,5.58
2018-12-18T02:52:09.089Z,5.56
2018-12-18T02:54:36.574Z,5.51
2018-12-18T02:57:03.980Z,5.52
2018-12-18T02:59:31.386Z,5.53
2018-12-18T03:01:58.794Z,5.50
2018-12-18T03:04:26.200Z,5.42
2018-12-18T03:06:53.586Z,5.55
2018-12-18T03:09:20.998Z,5.52
2018-12-18T03:11:48.401Z,5.44
2018-12-18T03:14:15.815Z,5.45
2018-12-18T03:16:43.290Z,5.51
2018-12-18T03:19:10.885Z,5.51
2018-12-18T03:21:38.282Z,5.54
2018-12-18T03:24:05.671Z,5.56
2018-12-18T03:26:33.066Z,5.50
2018-12-18T03:29:00.590Z,5.61
2018-12-18T03:31:29.392Z,5.64
2018-12-18T03:33:57.021Z,5.66
2018-12-18T03:36:24.410Z,5.62
2018-12-18T03:38:51.794Z,5.64
2018-12-18T03:41:19.203Z,5.62
2018-12-18T03:43:47.343Z,5.66
2018-12-18T03:46:14.752Z,5.59
2018-12-18T03:48:42.132Z,5.66
2018-12-18T03:51:09.537Z,5.66
2018-12-18T03:53:37.010Z,5.56
2018-12-18T03:56:04.505Z,5.60
2018-12-18T03:58:31.985Z,5.63
2018-12-18T04:00:59.498Z,5.71
2018-12-18T04:03:26.898Z,5.72
2018-12-18T04:05:54.819Z,5.71
2018-12-18T04:08:22.218Z,5.70
2018-12-18T04:10:49.703Z,5.66
2018-12-18T04:13:17.128Z,5.69
2018-12-18T04:15:44.534Z,5.62
2018-12-18T04:18:11.936Z,5.61
2018-12-18T04:21:14.649Z,5.59
2018-12-18T04:23:42.059Z,5.55
2018-12-18T04:26:09.455Z,5.58
2018-12-18T04:28:36.930Z,5.51
2018-12-18T04:31:04.417Z,5.59
2018-12-18T04:33:31.816Z,5.54
2018-12-18T04:35:59.234Z,5.58
2018-12-18T04:38:26.637Z,5.54
2018-12-18T04:40:54.110Z,5.57
2018-12-18T04:43:21.514Z,5.54
2018-12-18T04:45:48.909Z,5.57
2018-12-18T04:48:16.309Z,5.55
2018-12-18T04:50:43.789Z,5.59
2018-12-18T04:53:11.267Z,5.55
2018-12-18T04:55:38.658Z,5.59
2018-12-18T04:58:06.130Z,5.64
2018-12-18T05:00:33.604Z,5.63
2018-12-18T05:03:00.991Z,5.63
2018-12-18T05:05:28.377Z,5.63
2018-12-18T05:07:55.770Z,5.71
2018-12-18T05:10:23.150Z,5.65
2018-12-18T05:12:50.547Z,5.58
2018-12-18T05:15:17.947Z,5.57
2018-12-18T05:17:45.334Z,5.57
2018-12-18T05:20:12.751Z,5.53
2018-12-18T05:22:40.215Z,5.52
2018-12-18T05:25:07.612Z,5.50
2018-12-18T05:27:35.094Z,5.44
2018-12-18T05:30:02.489Z,5.46
2018-12-18T05:32:29.964Z,5.50
2018-12-18T05:34:57.386Z,5.50
2018-12-18T05:37:24.777Z,5.53
2018-12-18T05:39:52.163Z,5.57
2018-12-18T05:42:19.560Z,5.52
2018-12-18T05:44:47.055Z,5.56
2018-12-18T05:47:14.466Z,5.52
2018-12-18T05:49:41.862Z,5.49
2018-12-18T05:52:09.330Z,5.51
2018-12-18T05:54:36.709Z,5.50
2018-12-18T05:57:04.102Z,5.48
2018-12-18T05:59:31.500Z,5.52
2018-12-18T06:01:58.931Z,5.50
2018-12-18T06:04:26.328Z,5.56
2018-12-18T06:06:53.703Z,5.51
2018-12-18T06:09:21.097Z,5.55
2018-12-18T06:11:48.487Z,5.60
2018-12-18T06:14:15.869Z,5.59
2018-12-18T06:16:43.249Z,5.66
2018-12-18T06:19:10.645Z,5.58
2018-12-18T06:21:38.047Z,5.58
2018-12-18T06:24:05.419Z,5.52
2018-12-18T06:26:32.798Z,5.55
2018-12-18T06:29:00.193Z,5.59
2018-12-18T06:31:27.598Z,5.64
2018-12-18T06:33:54.991Z,5.67
2018-12-18T06:36:22.459Z,5.67
2018-12-18T06:38:49.867Z,5.57
2018-12-18T06:41:17.250Z,5.55
2018-12-18T06:43:44.837Z,5.54
2018-12-18T06:46:12.223Z,5.46
2018-12-18T06:48:39.612Z,5.52
2018-12-18T06:51:06.997Z,5.44
2018-12-18T06:53:34.382Z,5.48
2018-12-18T06:56:01.777Z,5.55
2018-12-18T06:58:29.154Z,5.48
2018-12-18T07:00:56.539Z,5.54
2018-12-18T07:03:23.940Z,5.53
2018-12-18T07:05:51.367Z,5.51
2018-12-18T07:08:18.750Z,5.50
2018-12-18T07:10:46.139Z,5.52
2018-12-18T07:13:13.537Z,5.47
2018-12-18T07:15:40.924Z,5.45
2018-12-18T07:18:08.370Z,5.41
2018-12-18T07:20:35.722Z,5.44
2018-12-18T07:23:03.145Z,5.40
2018-12-18T07:25:30.534Z,5.42
2018-12-18T07:27:57.917Z,5.37
2018-12-18T07:30:25.369Z,5.44
2018-12-18T07:32:52.762Z,5.48
2018-12-18T07:35:23.243Z,5.46
2018-12-18T07:37:49.537Z,5.39
2018-12-18T07:40:16.949Z,5.44
2018-12-18T07:42:44.335Z,5.48
2018-12-18T07:45:11.753Z,5.44
2018-12-18T07:47:39.145Z,5.36
2018-12-18T07:50:06.542Z,5.43
2018-12-18T07:52:33.922Z,5.45
2018-12-18T07:55:01.323Z,5.44
2018-12-18T07:57:28.742Z,5.64
2018-12-18T07:59:56.121Z,5.65
2018-12-18T08:02:23.542Z,5.61
2018-12-18T08:04:50.939Z,5.57
2018-12-18T08:07:18.321Z,5.58
2018-12-18T08:09:45.713Z,5.55
2018-12-18T08:12:13.259Z,5.46
2018-12-18T08:14:40.643Z,5.52
2018-12-18T08:17:08.024Z,5.54
2018-12-18T08:19:35.406Z,5.51
2018-12-18T08:22:02.883Z,5.59
2018-12-18T08:24:30.287Z,5.59
2018-12-18T08:26:57.679Z,5.57
2018-12-18T08:29:25.075Z,5.62
2018-12-18T08:31:52.467Z,5.69
2018-12-18T08:34:19.857Z,5.70
2018-12-18T08:36:47.238Z,5.69
2018-12-18T08:39:14.710Z,5.70
2018-12-18T08:41:42.173Z,5.74
2018-12-18T08:44:09.558Z,5.67
2018-12-18T08:46:36.954Z,5.66
2018-12-18T08:49:04.356Z,5.56
2018-12-18T08:51:31.750Z,5.52
2018-12-18T08:53:59.133Z,5.45
2018-12-18T08:56:26.530Z,5.44
2018-12-18T08:58:53.927Z,5.54
2018-12-18T09:01:21.346Z,5.52
2018-12-18T09:03:48.989Z,5.51
2018-12-18T09:06:16.408Z,5.53
2018-12-18T09:08:43.898Z,5.48
2018-12-18T09:11:11.268Z,5.44
2018-12-18T09:13:38.671Z,5.44
2018-12-18T09:16:07.953Z,5.46
2018-12-18T09:18:35.362Z,5.47
2018-12-18T09:21:02.735Z,5.50
2018-12-18T09:23:30.132Z,5.52
2018-12-18T09:25:57.585Z,5.58
2018-12-18T09:28:24.970Z,5.65
2018-12-18T09:30:52.388Z,5.59
2018-12-18T09:33:19.775Z,5.57
2018-12-18T09:35:49.853Z,5.66
2018-12-18T09:41:25.953Z,5.76
2018-12-18T09:43:55.230Z,5.73
2018-12-18T09:46:23.023Z,5.74
2018-12-18T09:48:50.422Z,5.77
2018-12-18T09:51:17.889Z,5.78
2018-12-18T09:53:46.391Z,5.89
2018-12-18T09:56:13.794Z,5.78
2018-12-18T09:58:41.165Z,5.76
2018-12-18T10:01:08.782Z,5.79
2018-12-18T10:03:36.181Z,5.82
2018-12-18T10:06:03.603Z,5.87
2018-12-18T10:08:30.972Z,5.88
2018-12-18T10:10:58.366Z,5.96
2018-12-18T10:13:25.874Z,5.95
2018-12-18T10:15:53.277Z,6.03
2018-12-18T10:18:20.668Z,5.96
2018-12-18T10:20:48.042Z,6.00
2018-12-18T10:23:15.429Z,5.98
2018-12-18T10:25:42.939Z,6.04
2018-12-18T10:28:10.313Z,6.10
2018-12-18T10:30:37.712Z,6.12
2018-12-18T10:33:05.387Z,6.15
2018-12-18T10:35:36.648Z,6.09
2018-12-18T10:38:02.147Z,6.13
2018-12-18T10:40:29.543Z,5.97
2018-12-18T10:42:56.922Z,5.92
2018-12-18T10:45:24.527Z,5.91
2018-12-18T10:47:51.910Z,5.87
2018-12-18T10:50:19.304Z,6.01
2018-12-18T10:52:46.710Z,5.85
2018-12-18T10:55:14.096Z,6.00
2018-12-18T10:57:41.498Z,5.84
2018-12-18T11:00:11.688Z,5.79
2018-12-18T11:02:39.109Z,5.83
2018-12-18T11:05:06.521Z,5.93
2018-12-18T11:07:33.903Z,6.02
2018-12-18T11:10:01.381Z,5.99
2018-12-18T11:12:34.567Z,5.96
2018-12-18T11:15:01.955Z,5.99
2018-12-18T11:17:29.335Z,6.03
2018-12-18T11:19:56.722Z,6.10
2018-12-18T11:22:24.116Z,6.07
2018-12-18T11:24:51.509Z,6.08
2018-12-18T11:27:18.895Z,6.16
2018-12-18T11:29:46.292Z,6.21
2018-12-18T11:32:13.687Z,6.15
2018-12-18T11:34:41.089Z,6.21
2018-12-18T11:37:08.564Z,6.20
2018-12-18T11:39:36.050Z,6.17
2018-12-18T11:42:03.422Z,6.21
2018-12-18T11:44:30.806Z,6.19
2018-12-18T11:46:58.218Z,6.17
2018-12-18T11:49:25.596Z,6.31
2018-12-18T11:51:53.077Z,6.34
2018-12-18T11:54:20.462Z,6.32
2018-12-18T11:56:47.851Z,6.36
2018-12-18T11:59:15.413Z,6.37
2018-12-18T12:01:42.936Z,6.41
2018-12-18T12:04:10.326Z,6.43
2018-12-18T12:06:37.726Z,6.41
2018-12-18T12:09:06.107Z,6.38
2018-12-18T12:11:33.660Z,6.43
2018-12-18T12:14:01.117Z,6.45
2018-12-18T12:16:28.504Z,6.50
2018-12-18T12:18:55.882Z,6.53
2018-12-18T12:21:23.282Z,6.52
2018-12-18T12:23:50.690Z,6.47
2018-12-18T12:26:23.605Z,6.46
2018-12-18T12:28:50.993Z,6.51
2018-12-18T12:31:18.448Z,6.53
2018-12-18T12:33:46.250Z,6.41
2018-12-18T12:36:13.638Z,6.40
2018-12-18T12:38:41.121Z,6.42
2018-12-18T12:41:08.505Z,6.51
2018-12-18T12:43:35.898Z,6.43
2018-12-18T12:46:03.325Z,6.46
2018-12-18T12:51:34.514Z,6.45
2018-12-18T12:54:01.904Z,6.46
2018-12-18T12:56:29.375Z,6.49
2018-12-18T12:58:56.770Z,6.55
2018-12-18T13:01:24.191Z,6.47
2018-12-18T13:03:51.642Z,6.58
2018-12-18T13:06:19.009Z,6.58
2018-12-18T13:08:46.461Z,6.44
2018-12-18T13:11:13.833Z,6.37
2018-12-18T13:13:41.235Z,6.40
2018-12-18T13:16:08.635Z,6.36
2018-12-18T13:18:36.020Z,6.43
2018-12-18T13:21:03.394Z,6.48
2018-12-18T13:23:30.780Z,6.44
2018-12-18T13:25:58.171Z,6.47
2018-12-18T13:28:25.578Z,6.45
2018-12-18T13:30:52.996Z,6.49
2018-12-18T13:33:20.382Z,6.43
2018-12-18T13:35:47.778Z,6.47
2018-12-18T13:38:15.269Z,6.44
2018-12-18T13:40:42.745Z,6.43
2018-12-18T13:43:10.147Z,6.47
2018-12-18T13:45:37.535Z,6.54
2018-12-18T13:48:04.995Z,6.52
2018-12-18T13:50:32.386Z,6.39
2018-12-18T13:52:59.875Z,6.37
2018-12-18T13:55:27.242Z,6.36
2018-12-18T13:57:54.647Z,6.34
2018-12-18T14:00:22.043Z,6.21
2018-12-18T14:02:49.445Z,6.25
2018-12-18T14:05:16.849Z,6.27
2018-12-18T14:07:44.279Z,6.32
2018-12-18T14:10:11.749Z,6.17
2018-12-18T14:12:39.209Z,6.02
2018-12-18T14:15:06.902Z,6.00
2018-12-18T14:17:34.305Z,6.06
2018-12-18T14:20:01.741Z,5.85
2018-12-18T14:22:29.206Z,5.87
2018-12-18T14:24:56.599Z,5.81
2018-12-18T14:27:23.999Z,5.78
2018-12-18T14:29:51.465Z,5.77
2018-12-18T14:32:18.855Z,5.73
2018-12-18T14:34:46.250Z,5.58
2018-12-18T14:37:13.647Z,5.52
2018-12-18T14:39:41.034Z,5.49
2018-12-18T14:42:08.438Z,5.39
2018-12-18T14:44:35.811Z,5.25
2018-12-18T14:47:03.194Z,5.24
2018-12-18T14:49:30.591Z,5.12
2018-12-18T14:51:57.979Z,5.20
2018-12-18T14:54:25.638Z,5.10
2018-12-18T14:56:53.043Z,5.13
2018-12-18T14:59:20.547Z,5.15
2018-12-18T15:01:48.998Z,5.26
2018-12-18T15:04:16.391Z,5.27
2018-12-18T15:06:43.775Z,5.25
2018-12-18T15:09:11.167Z,5.37
2018-12-18T15:11:38.568Z,5.36
2018-12-18T15:14:06.025Z,5.37
2018-12-18T15:16:33.436Z,5.33
2018-12-18T15:19:00.906Z,5.42
2018-12-18T15:21:28.300Z,5.45
2018-12-18T15:23:55.711Z,5.46
2018-12-18T15:26:23.163Z,5.52
2018-12-18T15:28:50.526Z,5.47
2018-12-18T15:31:17.909Z,5.45
2018-12-18T15:33:46.279Z,5.48
2018-12-18T15:36:13.701Z,5.50
2018-12-18T15:38:41.083Z,5.61
2018-12-18T15:41:08.465Z,5.49
2018-12-18T15:43:35.853Z,5.43
2018-12-18T15:46:03.324Z,5.45
2018-12-18T15:48:30.706Z,5.54
2018-12-18T15:50:58.090Z,5.56
2018-12-18T15:53:25.470Z,5.55
2018-12-18T15:55:52.857Z,5.57
2018-12-18T15:58:20.249Z,5.50
2018-12-18T16:00:47.634Z,5.57
2018-12-18T16:03:15.022Z,5.53
2018-12-18T16:05:42.428Z,5.49
2018-12-18T16:08:09.836Z,5.55
2018-12-18T16:10:37.211Z,5.59
2018-12-18T16:13:04.712Z,5.54
2018-12-18T16:15:32.092Z,5.50
2018-12-18T16:17:59.484Z,5.42
2018-12-18T16:20:26.864Z,5.48
2018-12-18T16:22:54.243Z,5.51
2018-12-18T16:25:21.646Z,5.54
2018-12-18T16:27:49.052Z,5.55
2018-12-18T16:30:16.450Z,5.63
2018-12-18T16:32:43.836Z,5.64
2018-12-18T16:35:11.213Z,5.54
2018-12-18T16:37:38.607Z,5.57
2018-12-18T16:40:06.109Z,5.47
2018-12-18T16:42:33.497Z,5.44
2018-12-18T16:45:00.902Z,5.45
2018-12-18T16:47:28.297Z,5.43
2018-12-18T16:49:55.762Z,5.44
2018-12-18T16:52:23.151Z,5.40
2018-12-18T16:54:50.550Z,5.45
2018-12-18T16:57:17.945Z,5.45
2018-12-18T16:59:45.343Z,5.59
2018-12-18T17:02:12.747Z,5.53
2018-12-18T17:04:40.157Z,5.49
2018-12-18T17:07:07.570Z,5.48
2018-12-18T17:09:34.991Z,5.42
2018-12-18T17:12:02.385Z,5.46
2018-12-18T17:14:29.781Z,5.44
2018-12-18T17:16:57.169Z,5.38
2018-12-18T17:19:24.620Z,5.38
2018-12-18T17:21:51.998Z,5.25
2018-12-18T17:24:19.395Z,5.24
2018-12-18T17:26:46.789Z,5.25
2018-12-18T17:29:14.174Z,5.07
2018-12-18T17:31:41.572Z,5.08
2018-12-18T17:34:08.987Z,5.08
2018-12-18T17:36:37.120Z,4.99
2018-12-18T17:39:06.539Z,4.95
2018-12-18T17:41:33.922Z,4.89
2018-12-18T17:44:01.313Z,4.90
2018-12-18T17:46:28.771Z,4.71
2018-12-18T17:48:56.219Z,4.69
2018-12-18T17:51:23.607Z,4.60
2018-12-18T17:53:51.044Z,4.66
2018-12-18T17:56:18.439Z,4.68
2018-12-18T17:58:45.812Z,4.61
2018-12-18T18:01:13.355Z,4.55
2018-12-18T18:03:40.740Z,4.59
2018-12-18T18:06:08.160Z,4.51
2018-12-18T18:08:35.550Z,4.38
2018-12-18T18:11:03.651Z,4.34
2018-12-18T18:13:31.157Z,4.27
2018-12-18T18:15:58.585Z,4.26
2018-12-18T18:18:25.972Z,4.08
2018-12-18T18:20:53.832Z,4.04
2018-12-18T18:23:21.439Z,4.12
2018-12-18T18:25:51.847Z,4.18
2018-12-18T18:28:19.248Z,4.18
2018-12-18T18:30:46.625Z,4.10
2018-12-18T18:33:14.026Z,4.04
2018-12-18T18:35:41.414Z,4.05
2018-12-18T18:38:08.792Z,4.06
2018-12-18T18:40:36.251Z,3.87
2018-12-18T18:43:03.634Z,3.76
2018-12-18T18:45:31.052Z,3.71
2018-12-18T18:47:58.439Z,3.77
2018-12-18T18:50:25.837Z,3.70
2018-12-18T18:52:53.227Z,3.68
2018-12-18T18:55:20.623Z,3.65
2018-12-18T18:57:48.021Z,3.69
2018-12-18T19:00:15.421Z,3.61
2018-12-18T19:02:42.814Z,3.66
2018-12-18T19:05:10.241Z,3.57
2018-12-18T19:07:37.615Z,3.61
2018-12-18T19:10:06.217Z,3.62
2018-12-18T19:12:33.683Z,3.58
2018-12-18T19:15:01.155Z,3.53
2018-12-18T19:17:28.655Z,3.56
2018-12-18T19:19:56.048Z,3.61
2018-12-18T19:22:23.436Z,3.66
2018-12-18T19:24:50.831Z,3.63
2018-12-18T19:27:18.221Z,3.70
2018-12-18T19:29:45.599Z,3.60
2018-12-18T19:32:13.024Z,3.64
2018-12-18T19:34:40.406Z,3.69
2018-12-18T19:37:07.778Z,3.61
2018-12-18T19:39:35.259Z,3.62
2018-12-18T19:42:02.646Z,3.61
2018-12-18T19:44:30.692Z,3.67
2018-12-18T19:46:58.074Z,3.54
2018-12-18T19:49:25.485Z,3.55
2018-12-18T19:51:52.863Z,3.57
2018-12-18T19:54:20.257Z,3.54
2018-12-18T19:56:47.741Z,3.53
2018-12-18T19:59:15.122Z,3.55
2018-12-18T20:01:42.517Z,3.62
2018-12-18T20:04:09.919Z,3.57
2018-12-18T20:06:37.328Z,3.63
2018-12-18T20:09:06.354Z,3.54
2018-12-18T20:11:33.767Z,3.51
2018-12-18T20:14:01.176Z,3.58
2018-12-18T20:16:28.562Z,3.51
2018-12-18T20:18:55.980Z,3.52
2018-12-18T20:21:23.385Z,3.47
2018-12-18T20:23:50.775Z,3.49
2018-12-18T20:26:18.176Z,3.46
2018-12-18T20:28:45.567Z,3.42
2018-12-18T20:31:12.975Z,3.37
2018-12-18T20:33:40.367Z,3.29
2018-12-18T20:36:07.756Z,3.26
2018-12-18T20:38:35.150Z,3.35
2018-12-18T20:41:02.554Z,3.29
2018-12-18T20:43:29.943Z,3.23
2018-12-18T20:45:57.363Z,3.11
2018-12-18T20:48:24.755Z,3.08
2018-12-18T20:50:52.151Z,3.04
2018-12-18T20:53:19.642Z,3.02
2018-12-18T20:55:47.054Z,3.01
2018-12-18T20:58:14.442Z,3.03
2018-12-18T21:00:41.860Z,2.95
2018-12-18T21:03:09.308Z,2.89
2018-12-18T21:05:36.793Z,2.86
2018-12-18T21:08:04.230Z,2.81
2018-12-18T21:10:31.619Z,2.81
2018-12-18T21:16:03.923Z,2.76
2018-12-18T21:18:31.340Z,2.72
2018-12-18T21:20:58.827Z,2.70
2018-12-18T21:23:26.219Z,2.64
2018-12-18T21:25:53.619Z,2.60
2018-12-18T21:28:21.032Z,2.56
2018-12-18T21:30:48.461Z,2.54
2018-12-18T21:33:15.872Z,2.59
2018-12-18T21:35:43.355Z,2.62
2018-12-18T21:38:10.789Z,2.55
2018-12-18T21:40:39.067Z,2.47
2018-12-18T21:43:06.634Z,2.54
2018-12-18T21:45:34.045Z,2.49
2018-12-18T21:48:01.449Z,2.47
2018-12-18T21:50:28.854Z,2.46
2018-12-18T21:52:56.267Z,2.48
2018-12-18T21:55:23.678Z,2.46
2018-12-18T21:57:51.081Z,2.38
2018-12-18T22:00:18.486Z,2.33
2018-12-18T22:02:45.878Z,2.26
2018-12-18T22:05:13.275Z,2.28
2018-12-18T22:07:40.689Z,2.26
2018-12-18T22:10:08.066Z,2.34
2018-12-18T22:12:35.454Z,2.35
2018-12-18T22:15:02.962Z,2.34
2018-12-18T22:17:30.360Z,2.31
2018-12-18T22:19:57.766Z,2.30
2018-12-18T22:22:25.194Z,2.26
2018-12-18T22:24:52.608Z,2.23
2018-12-18T22:27:20.000Z,2.25
2018-12-18T22:29:47.413Z,2.28
2018-12-18T22:32:14.797Z,2.29
2018-12-18T22:34:42.221Z,2.24
2018-12-18T22:37:09.685Z,2.26
2018-12-18T22:39:37.075Z,2.20
2018-12-18T22:42:04.465Z,2.26
2018-12-18T22:44:31.880Z,2.29
2018-12-18T22:46:59.292Z,2.25
2018-12-18T22:49:26.676Z,2.31
2018-12-18T22:51:54.071Z,2.30
2018-12-18T22:54:21.480Z,2.36
2018-12-18T22:56:48.874Z,2.41
2018-12-18T22:59:16.284Z,2.36
2018-12-18T23:01:45.060Z,2.37
2018-12-18T23:04:13.666Z,2.31
2018-12-18T23:06:41.100Z,2.34
2018-12-18T23:09:10.413Z,2.36
2018-12-18T23:11:37.814Z,2.32
2018-12-18T23:14:05.233Z,2.21
2018-12-18T23:16:32.626Z,2.26
2018-12-18T23:19:00.034Z,2.23
2018-12-18T23:21:27.450Z,2.29
2018-12-18T23:23:54.855Z,2.25
2018-12-18T23:26:22.248Z,2.21
2018-12-18T23:28:49.668Z,2.23
2018-12-18T23:31:17.066Z,2.18
2018-12-18T23:33:44.476Z,2.19
2018-12-18T23:36:11.941Z,2.16
2018-12-18T23:38:39.353Z,2.14
2018-12-18T23:41:06.830Z,2.12
2018-12-18T23:43:34.222Z,2.18
2018-12-18T23:46:01.636Z,2.15
2018-12-18T23:48:29.052Z,2.10
2018-12-18T23:50:56.583Z,2.16
2018-12-18T23:53:24.028Z,2.10
2018-12-18T23:55:51.430Z,2.06
2018-12-18T23:58:18.830Z,2.12
